Latest Weather Observations for St George

IDQ60801

Issued at 4:12 pm EST Saturday 5 December 2020 (issued every 10 minutes, with the page automatically refreshed every 10 minutes)

About weather observations | Map of weather stations | Latest weather observations for QLD | Other Formats
Station Details ID: 043109 Name: ST GEORGE AIRPORT Lat: -28.05 Lon: 148.59 Height: 198.5 m
Data from the previous 72 hours. | See also: Recent months at St George
Date/Time
EST
Temp
°C
App
Temp
°C
Dew
Point
°C
Rel
Hum
%
Delta-T
°C
Wind Press
QNH
hPa
Press
MSL
hPa
Rain since
9am
mm
Dir  Spd
km/h
Gust
km/h
Spd
kts
Gust
kts
05/04:00pm 40.8 34.3 8.1 14 19.1 WNW 32 54 17 29 1003.6 1002.4 0.0
05/03:52pm 41.6 35.2 8.7 14 19.3 WNW 32 54 17 29 1003.5 1002.2 0.0
05/03:30pm 41.0 34.5 8.2 14 19.1 NW 32 43 17 23 1003.6 1002.4 0.0
05/03:05pm 41.3 35.6 8.5 14 19.2 WNW 28 48 15 26 1004.0 1002.8 0.0
05/03:00pm 41.1 36.2 8.3 14 19.2 NW 24 43 13 23 1004.1 1002.9 0.0
05/02:30pm 41.4 37.5 8.5 14 19.3 NW 19 32 10 17 1004.8 1003.6 0.0
05/02:00pm 40.5 35.8 7.8 14 18.9 NNW 22 35 12 19 1005.3 1004.1 0.0
05/01:30pm 40.4 36.1 7.8 14 18.8 NNW 20 37 11 20 1005.8 1004.5 0.0
05/01:00pm 40.3 35.2 7.7 14 18.8 NNW 24 37 13 20 1006.5 1005.2 0.0
05/12:30pm 40.2 35.5 7.6 14 18.8 NNW 22 35 12 19 1007.1 1005.8 0.0
05/12:00pm 40.6 36.6 8.9 15 18.6 NNW 20 33 11 18 1007.7 1006.4 0.0
05/11:30am 40.2 36.2 10.5 17 17.8 NW 22 33 12 18 1008.3 1007.1 0.0
05/11:00am 38.8 34.7 10.2 18 17.0 NW 22 33 12 18 1008.9 1007.7 0.0
05/10:30am 38.6 34.7 10.9 19 16.6 NNW 22 33 12 18 1009.5 1008.3 0.0
05/10:00am 37.9 34.5 11.1 20 16.1 NNW 20 30 11 16 1009.6 1008.4 0.0
05/09:30am 38.6 35.2 12.4 21 16.0 NNW 22 32 12 17 1009.8 1008.6 0.0
05/09:00am 37.2 34.0 11.9 22 15.3 NNW 20 30 11 16 1010.0 1008.8 0.0
05/08:30am 35.6 32.2 11.3 23 14.5 N 20 30 11 16 1010.2 1009.0 0.0
05/08:00am 34.8 31.6 11.2 24 14.0 N 19 28 10 15 1010.4 1009.2 0.0
05/07:30am 33.4 31.5 12.9 28 12.4 NNE 15 20 8 11 1010.2 1009.0 0.0
05/07:00am 31.9 31.8 13.2 32 11.3 N 6 7 3 4 1010.3 1009.1 0.0
05/06:30am 29.7 30.2 13.9 38 9.6 NW 4 7 2 4 1010.1 1008.9 0.0
05/06:00am 27.4 27.2 14.8 46 7.7 NNE 9 13 5 7 1009.7 1008.5 0.0
05/05:30am 25.6 25.4 14.7 51 6.6 NNE 9 13 5 7 1009.6 1008.4 0.0
05/05:00am 25.3 26.5 13.8 49 6.8 CALM 0 2 0 1 1009.2 1008.0 0.0
05/04:30am 25.2 24.9 13.4 48 7.0 SW 7 9 4 5 1009.0 1007.8 0.0
05/04:00am 26.0 27.2 13.8 47 7.3 CALM 0 0 0 0 1009.1 1007.9 0.0
05/03:30am 26.5 26.8 13.3 44 7.8 N 4 7 2 4 1008.7 1007.5 0.0
05/03:00am 26.7 27.7 13.1 43 8.0 CALM 0 0 0 0 1008.5 1007.3 0.0
05/02:30am 27.7 28.2 12.9 40 8.7 SW 2 6 1 3 1008.4 1007.2 0.0
05/02:00am 28.7 29.1 12.6 37 9.5 S 2 6 1 3 1008.6 1007.4 0.0
05/01:30am 29.2 27.9 12.6 36 9.8 NW 11 13 6 7 1008.7 1007.5 0.0
05/01:00am 29.1 28.3 11.6 33 10.2 SSW 7 9 4 5 1009.2 1008.0 0.0
05/12:30am 29.9 27.6 11.9 33 10.6 SSE 15 22 8 12 1009.5 1008.3 0.0
05/12:00am 31.3 30.7 12.2 31 11.4 NW 7 11 4 6 1009.9 1008.7 0.0
 
Date/Time
EST
Temp
°C
App
Temp
°C
Dew
Point
°C
Rel
Hum
%
Delta-T
°C
Wind Press
QNH
hPa
Press
MSL
hPa
Rain since
9am
mm
Dir  Spd
km/h
Gust
km/h
Spd
kts
Gust
kts
04/11:30pm 30.7 30.0 12.1 32 11.0 NNE 7 7 4 4 1009.9 1008.7 0.0
04/11:00pm 31.6 30.6 12.4 31 11.5 NNE 9 9 5 5 1009.9 1008.7 0.0
04/10:30pm 31.2 30.7 12.5 31 11.1 NNE 7 11 4 6 1010.1 1008.9 0.0
04/10:00pm 31.9 31.1 11.7 29 11.9 NE 7 9 4 5 1010.1 1008.9 0.0
04/09:30pm 31.8 31.3 12.1 30 11.7 NE 6 7 3 4 1009.9 1008.7 0.0
04/09:00pm 32.0 32.7 12.3 30 11.8 CALM 0 6 0 3 1010.1 1008.9 0.0
04/08:30pm 32.0 32.5 11.7 28 12.0 CALM 0 0 0 0 1009.7 1008.5 0.0
04/08:00pm 32.8 32.7 10.8 26 12.9 NE 2 6 1 3 1009.3 1008.1 0.0
04/07:30pm 33.8 32.8 10.4 24 13.7 ENE 6 6 3 3 1009.1 1007.9 0.0
04/07:00pm 34.9 34.0 11.3 24 14.0 SSE 7 11 4 6 1009.3 1008.1 0.0
04/06:30pm 36.1 34.9 10.3 21 15.2 S 7 11 4 6 1009.1 1007.9 0.0
04/06:00pm 37.7 37.2 9.3 18 16.6 SSW 2 7 1 4 1008.9 1007.7 0.0
04/05:30pm 38.3 37.9 9.8 18 16.8 NE 2 7 1 4 1008.8 1007.6 0.0
04/05:00pm 38.1 38.0 9.6 18 16.8 CALM 0 7 0 4 1008.9 1007.7 0.0
04/04:30pm 38.8 37.6 10.2 18 17.0 WSW 7 15 4 8 1009.2 1008.0 0.0
04/04:00pm 37.9 35.6 10.3 19 16.4 SSW 13 19 7 10 1009.4 1008.2 0.0
04/03:30pm 37.8 36.2 10.2 19 16.3 WNW 9 17 5 9 1009.7 1008.5 0.0
04/03:00pm 38.4 35.8 10.7 19 16.6 NNW 15 26 8 14 1010.4 1009.2 0.0
04/02:30pm 37.7 35.2 10.9 20 16.0 NNW 15 22 8 12 1011.0 1009.7 0.0
04/02:00pm 37.2 34.7 11.2 21 15.6 NW 15 24 8 13 1011.5 1010.2 0.0
04/01:30pm 36.7 33.9 11.5 22 15.1 NNW 17 24 9 13 1011.8 1010.5 0.0
04/01:00pm 35.2 31.5 11.6 24 14.1 NNW 22 35 12 19 1012.5 1011.2 0.0
04/12:30pm 35.9 31.8 11.5 23 14.6 NNW 24 35 13 19 1013.1 1011.9 0.0
04/12:00pm 34.9 30.8 11.3 24 14.0 N 24 37 13 20 1013.8 1012.6 0.0
04/11:30am 34.4 30.1 13.3 28 12.9 N 28 35 15 19 1014.3 1013.1 0.0
04/11:00am 33.4 29.0 12.9 28 12.4 N 28 41 15 22 1014.7 1013.5 0.0
04/10:31am 32.7 28.2 13.8 31 11.6 N 30 48 16 26 1015.0 1013.8 0.0
04/10:30am 32.2 27.6 13.4 32 11.4 N 30 39 16 21 1015.1 1013.9 0.0
04/10:00am 31.8 26.6 13.5 32 11.1 NNE 33 48 18 26 1015.4 1014.2 0.0
04/09:30am 31.2 25.9 13.0 33 10.9 NNE 33 48 18 26 1015.6 1014.4 0.0
04/09:00am 30.9 26.8 13.7 35 10.4 NNE 28 39 15 21 1016.3 1015.0 -
04/08:35am 29.7 24.2 13.5 37 9.7 NNE 35 54 19 29 1016.2 1014.9 -
04/08:30am 30.4 25.1 14.1 37 9.9 NNE 35 50 19 27 1016.2 1014.9 -
04/08:22am 30.1 25.2 13.8 37 9.9 NNE 32 50 17 27 1016.3 1015.0 -
04/08:00am 29.3 24.5 13.9 39 9.3 NNE 32 44 17 24 1016.6 1015.3 -
04/07:35am 28.3 24.8 15.6 46 7.9 NNE 28 46 15 25 1017.0 1015.7 -
04/07:30am 27.9 24.8 15.5 46 7.6 NNE 26 46 14 25 1016.9 1015.6 -
04/07:00am 26.6 23.6 16.8 55 6.1 NE 28 39 15 21 1016.8 1015.5 -
04/06:30am 25.3 22.5 17.2 61 5.1 ENE 28 43 15 23 1016.9 1015.6 -
04/06:00am 24.0 20.8 17.3 66 4.2 E 30 43 16 23 1016.5 1015.2 -
04/05:30am 23.6 20.7 17.1 67 4.0 E 28 39 15 21 1016.4 1015.1 -
04/05:00am 23.5 19.9 17.3 68 3.9 E 32 44 17 24 1016.4 1015.1 -
04/04:30am 23.5 20.4 17.5 69 3.8 E 30 44 16 24 1016.4 1015.1 -
04/04:00am 23.5 20.9 17.7 70 3.6 ESE 28 43 15 23 1015.9 1014.7 -
04/03:30am 23.7 22.1 17.4 68 3.9 ESE 22 33 12 18 1015.5 1014.3 -
04/03:00am 24.3 22.3 17.3 65 4.4 ESE 24 35 13 19 1014.9 1013.7 0.0
04/02:30am 24.5 22.4 17.2 63 4.6 ESE 24 32 13 17 1014.8 1013.6 -
04/02:00am 24.6 21.2 16.8 62 4.8 E 30 41 16 22 1014.5 1013.3 -
04/01:30am 24.1 21.9 16.9 64 4.5 ESE 24 32 13 17 1015.1 1013.9 -
04/01:00am 23.7 21.2 17.0 66 4.2 E 26 35 14 19 1015.5 1014.3 -
04/12:30am 23.6 20.5 17.6 69 3.8 ESE 30 41 16 22 1016.7 1015.4 -
04/12:00am 25.1 23.3 19.5 71 3.6 SE 28 41 15 22 1017.2 1016.0 -
 
Date/Time
EST
Temp
°C
App
Temp
°C
Dew
Point
°C
Rel
Hum
%
Delta-T
°C
Wind Press
QNH
hPa
Press
MSL
hPa
Rain since
9am
mm
Dir  Spd
km/h
Gust
km/h
Spd
kts
Gust
kts
03/11:30pm 25.5 24.5 19.6 70 3.8 ESE 24 32 13 17 1015.9 1014.7 -
03/11:00pm 25.9 23.7 19.5 68 4.2 SE 30 41 16 22 1016.9 1015.6 -
03/10:39pm 27.0 24.8 18.8 60 5.3 SSE 28 46 15 25 1016.9 1015.6 -
03/10:30pm 27.3 23.8 18.0 56 5.9 SSE 33 48 18 26 1016.6 1015.3 -
03/10:10pm 29.8 28.2 15.9 43 8.7 SSE 19 39 10 21 1016.3 1015.0 -
03/10:00pm 29.5 29.8 16.0 44 8.4 SE 9 11 5 6 1015.6 1014.4 -
03/09:30pm 29.3 29.5 15.8 44 8.4 SSE 9 11 5 6 1014.9 1013.7 -
03/09:00pm 29.9 30.8 16.0 43 8.7 SE 6 9 3 5 1014.5 1013.3 -
03/08:30pm 29.1 30.0 16.6 46 7.9 ESE 7 9 4 5 1013.9 1012.7 -
03/08:00pm 28.7 27.3 16.6 48 7.6 SE 19 26 10 14 1014.0 1012.8 -
03/07:30pm 27.8 27.0 17.9 54 6.3 SE 19 26 10 14 1014.0 1012.8 -
03/07:00pm 27.5 24.9 17.7 55 6.2 SE 28 33 15 18 1014.4 1013.2 -
03/06:30pm 30.3 28.6 16.3 42 8.8 SSE 20 32 11 17 1013.8 1012.6 0.0
03/06:00pm 31.6 30.3 16.7 40 9.5 SW 19 28 10 15 1013.0 1011.8 0.0
03/05:42pm 29.0 26.9 15.2 43 8.5 W 20 39 11 21 1013.6 1012.4 0.0
03/05:30pm 34.4 32.4 13.8 29 12.7 NW 17 24 9 13 1013.2 1012.0 0.0
03/05:00pm 36.7 35.3 12.2 23 14.9 NW 11 15 6 8 1012.5 1011.2 0.0
03/04:30pm 37.1 35.8 11.1 21 15.5 NW 9 13 5 7 1012.0 1010.7 0.0
03/04:00pm 37.4 35.9 10.7 20 15.9 NW 9 11 5 6 1012.2 1010.9 0.0
03/03:30pm 38.0 36.5 10.4 19 16.4 NNE 9 17 5 9 1012.0 1010.7 0.0
03/03:00pm 39.0 36.5 11.2 19 16.8 N 15 24 8 13 1012.5 1011.2 0.0
03/02:30pm 38.7 36.8 11.7 20 16.4 NW 13 24 7 13 1012.9 1011.7 0.0
03/02:00pm 37.8 34.7 11.7 21 15.8 NNW 19 28 10 15 1013.3 1012.1 0.0
03/01:30pm 37.8 34.9 12.4 22 15.5 N 19 28 10 15 1013.6 1012.4 0.0
03/01:00pm 37.9 35.1 13.2 23 15.3 NNE 20 33 11 18 1013.7 1012.5 0.0
03/12:30pm 37.3 33.6 14.0 25 14.5 N 26 35 14 19 1014.4 1013.2 0.0
03/12:00pm 36.4 33.0 13.8 26 14.0 N 24 35 13 19 1014.8 1013.6 0.0
03/11:30am 35.1 32.3 14.4 29 12.9 N 22 33 12 18 1015.5 1014.3 0.0
03/11:00am 33.7 31.6 15.2 33 11.6 NNE 20 35 11 19 1016.0 1014.8 0.0
03/10:30am 34.2 32.6 16.5 34 11.3 NNE 20 28 11 15 1016.4 1015.1 0.0
03/10:00am 32.8 31.2 17.4 39 9.9 N 22 32 12 17 1016.6 1015.3 0.0
03/09:30am 32.0 29.7 16.7 40 9.7 NNE 24 37 13 20 1016.8 1015.5 0.0
03/09:00am 32.3 29.5 17.4 41 9.6 NNE 28 39 15 21 1016.6 1015.3 0.0
03/08:30am 30.9 27.2 16.9 43 8.9 NNE 32 46 17 25 1016.3 1015.0 0.0
03/08:00am 31.4 28.8 15.8 39 9.8 NNE 24 35 13 19 1016.2 1014.9 0.0
03/07:30am 30.5 26.7 14.6 38 9.8 NNE 28 39 15 21 1016.0 1014.8 0.0
03/07:00am 29.5 26.9 16.0 44 8.4 NNE 24 35 13 19 1015.5 1014.3 0.0
03/06:30am 28.6 27.6 16.5 48 7.6 NNE 17 24 9 13 1015.5 1014.3 0.0
03/06:00am 27.9 27.2 16.5 50 7.1 NNE 15 20 8 11 1015.4 1014.2 0.0
03/05:30am 27.7 27.3 16.3 49 7.1 NNE 13 24 7 13 1015.2 1014.0 0.0
03/05:00am 27.7 28.0 16.0 49 7.3 NNE 9 17 5 9 1014.7 1013.5 0.0
03/04:30am 27.9 28.3 16.2 49 7.3 NE 9 13 5 7 1014.5 1013.3 0.0
03/04:00am 27.8 27.9 16.4 50 7.1 ENE 11 15 6 8 1014.5 1013.3 0.0
03/03:30am 27.8 28.0 16.7 50 7.0 NE 11 17 6 9 1014.4 1013.2 0.0
03/03:00am 27.5 26.6 16.8 52 6.7 ENE 17 24 9 13 1014.1 1012.9 0.0
03/02:30am 27.7 26.4 16.9 51 6.8 ENE 19 28 10 15 1014.0 1012.8 0.0
03/02:00am 27.5 26.7 17.9 55 6.1 ENE 19 24 10 13 1014.1 1012.9 0.0
03/01:30am 27.6 25.0 17.7 54 6.3 E 28 39 15 21 1014.3 1013.1 0.0
03/01:00am 28.8 26.0 17.3 49 7.3 E 28 46 15 25 1014.4 1013.2 0.0
03/12:30am 29.6 27.4 16.8 46 8.1 E 24 37 13 20 1014.5 1013.3 0.0
03/12:00am 30.5 25.3 3.5 18 13.9 SE 20 32 11 17 1014.7 1013.5 0.0
 
Date/Time
EST
Temp
°C
App
Temp
°C
Dew
Point
°C
Rel
Hum
%
Delta-T
°C
Wind Press
QNH
hPa
Press
MSL
hPa
Rain since
9am
mm
Dir  Spd
km/h
Gust
km/h
Spd
kts
Gust
kts
02/11:30pm 31.0 25.3 3.1 17 14.3 SSE 22 30 12 16 1014.4 1013.2 0.0
02/11:00pm 31.7 25.6 2.8 16 14.8 S 24 32 13 17 1014.3 1013.1 0.0
02/10:30pm 32.4 25.1 2.5 15 15.3 SSE 30 44 16 24 1014.5 1013.3 0.0
02/10:00pm 33.3 26.9 3.2 15 15.6 SSE 26 35 14 19 1014.1 1012.9 0.0
02/09:30pm 34.2 28.3 3.9 15 16.0 SSE 24 32 13 17 1014.0 1012.8 0.0
02/09:00pm 35.1 29.5 3.6 14 16.6 SSE 22 37 12 20 1013.4 1012.2 0.0
02/08:30pm 36.4 31.4 4.6 14 17.2 S 20 37 11 20 1012.7 1011.5 0.0
02/08:00pm 37.3 32.1 5.3 14 17.6 S 22 33 12 18 1012.3 1011.0 0.0
02/07:30pm 38.2 33.5 6.0 14 17.9 S 20 28 11 15 1011.7 1010.4 0.0
02/07:00pm 38.9 34.1 5.5 13 18.5 S 20 28 11 15 1011.0 1009.7 0.0
02/06:30pm 40.4 35.8 6.7 13 19.2 SSW 20 33 11 18 1010.4 1009.2 0.0
02/06:00pm 41.4 36.8 6.3 12 19.9 S 20 32 11 17 1010.0 1008.8 0.0
02/05:30pm 42.6 38.2 7.2 12 20.5 S 20 28 11 15 1009.6 1008.4 0.0
02/05:00pm 42.8 38.4 7.3 12 20.6 SSE 20 30 11 16 1009.5 1008.3 0.0
02/04:30pm 43.0 38.6 7.5 12 20.6 SSE 20 30 11 16 1009.5 1008.3 0.0

Other formats

Comma delimited format used in spreadsheet applications
http://www.bom.gov.au/fwo/IDQ60801/IDQ60801.94517.axf

JavaScript Object Notation format (JSON) in row-major order
http://www.bom.gov.au/fwo/IDQ60801/IDQ60801.94517.json

Data quality

Most of these data are generated automatically and are frequently updated. Quality checks on data are not normally performed. It is possible for incorrect values to appear. Refer to information at About Latest Weather Observations and please check the disclaimer before using these data.